Time;durP1;ratioP1;P1;durP2;ratioP2;P2;SDS_P1;SDS_P2;PMS_P1;PMS_P2;Temp;Humidity;BMP_temperature;BMP_pressure;BME280_temperature;BME280_humidity;BME280_pressure;Samples;Min_cycle;Max_cycle;Signal;HPM_P1;HPM_P2
2022/02/15 00:00:38;;;;;;;7.20;2.40;;;;;;;6.81;100.00;100171.22;10198364;28;20120;-72
2022/02/15 00:05:35;;;;;;;6.82;2.13;;;;;;;6.79;100.00;100168.00;10189957;28;20058;-72
2022/02/15 00:10:31;;;;;;;9.32;2.53;;;;;;;6.83;100.00;100179.88;10188582;28;20096;-72
2022/02/15 00:15:29;;;;;;;6.65;1.88;;;;;;;6.89;100.00;100180.56;10182980;28;20046;-72
2022/02/15 00:20:27;;;;;;;6.63;2.00;;;;;;;6.91;100.00;100172.91;10212934;28;20049;-73
2022/02/15 00:25:23;;;;;;;8.48;2.42;;;;;;;6.90;100.00;100174.81;10182230;28;20041;-73
2022/02/15 00:30:20;;;;;;;7.05;2.35;;;;;;;6.94;100.00;100170.41;10189629;28;20045;-71
2022/02/15 00:35:17;;;;;;;6.70;2.08;;;;;;;7.03;100.00;100167.75;10181358;28;20146;-71
2022/02/15 00:40:15;;;;;;;9.57;2.10;;;;;;;7.08;100.00;100175.00;10193241;28;20100;-71
2022/02/15 00:45:11;;;;;;;10.52;2.15;;;;;;;7.13;100.00;100177.59;10185196;28;20109;-71
2022/02/15 00:50:09;;;;;;;6.63;1.92;;;;;;;7.20;100.00;100188.03;10167468;28;20046;-70
2022/02/15 00:55:08;;;;;;;7.93;2.10;;;;;;;7.17;100.00;100189.44;10195640;28;20074;-70
2022/02/15 01:00:07;;;;;;;8.93;2.10;;;;;;;7.20;100.00;100171.72;10205348;28;20041;-70
2022/02/15 01:05:05;;;;;;;10.27;2.50;;;;;;;7.23;100.00;100188.22;10194368;28;20096;-70
2022/02/15 01:10:02;;;;;;;13.32;2.45;;;;;;;7.21;100.00;100179.56;10178275;28;20112;-70
2022/02/15 01:15:00;;;;;;;7.53;2.70;;;;;;;7.27;100.00;100181.03;10212722;28;20124;-68
2022/02/15 01:19:56;;;;;;;7.47;2.72;;;;;;;7.29;100.00;100180.75;10186870;28;20077;-69
2022/02/15 01:24:52;;;;;;;12.80;2.90;;;;;;;7.34;100.00;100184.13;10213066;28;20069;-69
2022/02/15 01:29:49;;;;;;;11.30;3.05;;;;;;;7.29;100.00;100186.97;10205963;28;20116;-71
2022/02/15 01:34:45;;;;;;;10.90;3.60;;;;;;;7.36;100.00;100187.34;10194477;28;20100;-71
2022/02/15 01:39:43;;;;;;;5.43;2.88;;;;;;;7.37;100.00;100193.59;10214489;28;20041;-71
2022/02/15 01:44:40;;;;;;;10.25;4.32;;;;;;;7.33;100.00;100203.47;10194919;28;20077;-72
2022/02/15 01:49:36;;;;;;;8.75;4.00;;;;;;;7.38;100.00;100203.38;10191104;28;20072;-72
2022/02/15 01:54:33;;;;;;;9.63;4.32;;;;;;;7.33;100.00;100187.97;10198850;28;20073;-69
2022/02/15 01:59:31;;;;;;;10.18;3.85;;;;;;;7.37;100.00;100186.22;10181738;28;20119;-69
2022/02/15 02:09:43;;;;;;;12.25;4.72;;;;;;;7.34;100.00;100189.56;10189940;28;20121;-70
2022/02/15 02:14:39;;;;;;;10.13;4.65;;;;;;;7.31;100.00;100195.63;10194384;28;20423;-72
2022/02/15 02:19:36;;;;;;;9.25;5.00;;;;;;;7.33;100.00;100198.84;10200424;28;20569;-69
2022/02/15 02:24:34;;;;;;;11.50;4.80;;;;;;;7.27;100.00;100204.72;10219133;28;20510;-70
2022/02/15 02:29:30;;;;;;;10.18;4.85;;;;;;;7.14;100.00;100206.38;10179568;28;20038;-73
2022/02/15 02:34:27;;;;;;;8.27;4.80;;;;;;;7.08;100.00;100232.88;10167657;28;20144;-74
2022/02/15 02:39:24;;;;;;;11.20;5.60;;;;;;;6.99;100.00;100233.91;10185948;28;20080;-73
2022/02/15 02:44:20;;;;;;;18.08;6.18;;;;;;;6.94;100.00;100240.25;10187272;28;20125;-73
2022/02/15 02:49:17;;;;;;;11.85;6.28;;;;;;;6.89;100.00;100254.75;10185679;28;20382;-72
2022/02/15 02:54:13;;;;;;;10.60;6.75;;;;;;;6.80;100.00;100245.72;10204866;28;20053;-70
2022/02/15 02:59:09;;;;;;;10.45;6.57;;;;;;;6.73;100.00;100256.19;10181006;28;20661;-69
2022/02/15 03:04:06;;;;;;;10.23;5.85;;;;;;;6.70;100.00;100254.84;10186385;28;20472;-70
2022/02/15 03:09:03;;;;;;;13.90;7.47;;;;;;;6.56;100.00;100256.78;10181755;28;20042;-71
2022/02/15 03:14:00;;;;;;;14.75;8.18;;;;;;;6.41;100.00;100276.91;10189639;28;20085;-71
2022/02/15 03:18:57;;;;;;;13.13;8.50;;;;;;;6.48;100.00;100280.03;10174321;28;20768;-71
2022/02/15 03:23:53;;;;;;;15.93;8.38;;;;;;;6.52;100.00;100286.47;10194233;28;20042;-71
2022/02/15 03:28:50;;;;;;;13.98;8.23;;;;;;;6.51;100.00;100314.72;10192564;28;20608;-71
2022/02/15 03:33:46;;;;;;;13.52;7.97;;;;;;;6.42;100.00;100311.09;10190859;28;20038;-70
2022/02/15 03:38:43;;;;;;;17.15;7.35;;;;;;;6.43;100.00;100301.84;10186983;28;20101;-73
2022/02/15 03:43:39;;;;;;;9.50;6.72;;;;;;;6.50;100.00;100296.03;10189040;28;20211;-73
2022/02/15 03:48:36;;;;;;;14.68;6.05;;;;;;;6.55;100.00;100309.50;10186271;28;20049;-73
2022/02/15 03:53:32;;;;;;;9.02;5.10;;;;;;;6.55;100.00;100297.84;10191190;28;20084;-73
2022/02/15 03:58:29;;;;;;;7.45;5.50;;;;;;;6.51;100.00;100316.63;10184788;28;20137;-73
2022/02/15 04:03:26;;;;;;;9.23;4.93;;;;;;;6.54;100.00;100316.03;10190297;28;20073;-71
2022/02/15 04:08:24;;;;;;;8.35;4.85;;;;;;;6.50;100.00;100329.41;10184428;28;20523;-72
2022/02/15 04:13:20;;;;;;;12.90;5.32;;;;;;;6.39;100.00;100349.72;10190884;28;20489;-72
2022/02/15 04:18:17;;;;;;;8.98;3.25;;;;;;;6.36;100.00;100350.31;10174217;28;20097;-72
2022/02/15 04:23:13;;;;;;;6.32;3.10;;;;;;;6.36;100.00;100344.91;10207980;28;20555;-71
2022/02/15 04:28:10;;;;;;;6.20;3.00;;;;;;;6.41;100.00;100336.66;10195991;28;20586;-70
2022/02/15 04:33:07;;;;;;;9.93;3.05;;;;;;;6.22;100.00;100355.72;10201096;28;20474;-70
2022/02/15 04:38:03;;;;;;;9.45;2.80;;;;;;;6.20;100.00;100362.56;10193322;28;20046;-72
2022/02/15 04:43:00;;;;;;;7.68;3.30;;;;;;;6.16;100.00;100361.53;10199385;28;20046;-72
2022/02/15 04:47:56;;;;;;;4.78;2.70;;;;;;;6.22;100.00;100373.91;10188526;28;20486;-73
2022/02/15 04:52:53;;;;;;;5.90;3.00;;;;;;;6.17;100.00;100391.06;10199570;28;20141;-73
2022/02/15 04:57:49;;;;;;;7.30;3.92;;;;;;;6.10;100.00;100396.91;10194844;28;20120;-73
2022/02/15 05:02:46;;;;;;;10.25;4.32;;;;;;;6.09;100.00;100399.91;10194281;28;20499;-73
2022/02/15 05:07:42;;;;;;;9.23;4.20;;;;;;;6.05;100.00;100399.66;10177293;28;20038;-73
2022/02/15 05:12:39;;;;;;;7.00;3.75;;;;;;;5.97;100.00;100407.69;10183435;28;20051;-72
2022/02/15 05:17:43;;;;;;;10.35;4.03;;;;;;;5.94;100.00;100419.09;10165728;28;20042;-71
2022/02/15 05:22:40;;;;;;;14.65;5.57;;;;;;;5.97;100.00;100413.91;10185964;28;20042;-72
2022/02/15 05:27:36;;;;;;;9.07;4.60;;;;;;;5.96;100.00;100428.56;10178718;28;20072;-69
2022/02/15 05:32:33;;;;;;;13.00;5.38;;;;;;;5.95;100.00;100421.56;10175759;28;20522;-72
2022/02/15 05:37:29;;;;;;;12.43;5.03;;;;;;;6.05;100.00;100426.00;10186878;28;20132;-73
2022/02/15 05:42:26;;;;;;;8.75;4.72;;;;;;;5.92;100.00;100432.97;10195677;28;20080;-72
2022/02/15 05:47:22;;;;;;;16.58;5.50;;;;;;;5.90;100.00;100440.59;10190856;28;20053;-72
2022/02/15 05:52:19;;;;;;;13.43;5.70;;;;;;;5.85;100.00;100455.03;10161311;28;20092;-72
2022/02/15 05:57:17;;;;;;;10.40;6.15;;;;;;;5.81;100.00;100456.72;10172657;28;20747;-72
2022/02/15 06:02:13;;;;;;;11.50;6.88;;;;;;;5.89;100.00;100460.66;10166598;28;20080;-72
2022/02/15 06:07:10;;;;;;;11.38;6.50;;;;;;;5.83;100.00;100461.84;10175823;28;20542;-71
2022/02/15 06:12:07;;;;;;;12.10;6.18;;;;;;;5.80;100.00;100492.25;10187048;28;20423;-71
2022/02/15 06:17:03;;;;;;;9.98;5.97;;;;;;;5.87;100.00;100484.56;10170111;28;20054;-72
2022/02/15 06:22:00;;;;;;;11.00;5.55;;;;;;;5.86;100.00;100491.09;10183950;28;20119;-71
2022/02/15 06:27:01;;;;;;;12.15;5.72;;;;;;;5.82;100.00;100495.50;10168476;28;20046;-72
2022/02/15 06:31:58;;;;;;;11.38;5.63;;;;;;;5.80;100.00;100484.13;10201571;28;20510;-71
2022/02/15 06:36:55;;;;;;;11.90;6.60;;;;;;;5.84;100.00;100498.72;10173250;28;20096;-72
2022/02/15 06:41:51;;;;;;;11.93;6.35;;;;;;;5.86;100.00;100507.41;10158767;28;20046;-71
2022/02/15 06:46:48;;;;;;;11.48;6.70;;;;;;;5.94;100.00;100517.63;10168797;28;20435;-72
2022/02/15 06:51:45;;;;;;;11.82;7.35;;;;;;;5.98;100.00;100524.09;10176121;28;20061;-72
2022/02/15 06:56:41;;;;;;;10.00;6.15;;;;;;;6.00;100.00;100527.31;10168744;28;20045;-71
2022/02/15 07:01:40;;;;;;;13.07;6.60;;;;;;;6.06;100.00;100537.00;10178442;28;20109;-72
2022/02/15 07:06:38;;;;;;;13.95;6.40;;;;;;;5.95;100.00;100551.81;10169203;28;20054;-72
2022/02/15 07:11:35;;;;;;;14.35;7.85;;;;;;;5.96;100.00;100564.25;10160989;28;20070;-71
2022/02/15 07:16:31;;;;;;;11.45;6.78;;;;;;;5.94;100.00;100568.34;10164257;28;20047;-72
2022/02/15 07:21:30;;;;;;;13.63;7.47;;;;;;;5.89;100.00;100596.34;10197042;28;20053;-72
2022/02/15 07:26:27;;;;;;;13.73;8.57;;;;;;;5.87;100.00;100593.94;10196238;28;20470;-71
2022/02/15 07:31:24;;;;;;;18.98;9.18;;;;;;;5.96;100.00;100604.19;10231812;28;20049;-72
2022/02/15 07:36:20;;;;;;;16.42;9.20;;;;;;;5.89;100.00;100609.91;10186427;28;20046;-71
2022/02/15 07:41:17;;;;;;;17.45;8.63;;;;;;;5.88;100.00;100614.53;10154009;28;20113;-72
2022/02/15 07:46:14;;;;;;;17.02;8.80;;;;;;;5.90;100.00;100614.25;10170189;28;20061;-72
2022/02/15 07:51:10;;;;;;;15.70;8.75;;;;;;;5.99;100.00;100622.63;10164049;28;20064;-72
2022/02/15 07:56:07;;;;;;;14.25;8.20;;;;;;;5.89;100.00;100628.91;10191478;28;20069;-72
2022/02/15 08:01:04;;;;;;;15.25;8.93;;;;;;;5.99;100.00;100622.63;10208179;28;20070;-72
2022/02/15 08:06:01;;;;;;;13.80;8.90;;;;;;;6.00;100.00;100635.88;10183251;28;20108;-72
2022/02/15 08:10:57;;;;;;;18.75;9.50;;;;;;;5.85;100.00;100646.88;10192408;28;20104;-72
2022/02/15 08:15:54;;;;;;;18.55;11.07;;;;;;;5.83;100.00;100641.75;10184070;28;20491;-73
2022/02/15 08:20:50;;;;;;;22.23;12.13;;;;;;;5.75;100.00;100650.50;10203035;28;20486;-73
2022/02/15 08:25:47;;;;;;;27.50;12.55;;;;;;;5.80;100.00;100663.19;10173342;28;20463;-74
2022/02/15 08:30:45;;;;;;;16.27;9.25;;;;;;;5.86;100.00;100651.19;10210611;28;20092;-73
2022/02/15 08:35:41;;;;;;;14.63;8.18;;;;;;;5.86;100.00;100673.72;10174258;28;20497;-73
2022/02/15 08:40:38;;;;;;;17.92;7.97;;;;;;;5.72;100.00;100677.41;10153173;28;20050;-73
2022/02/15 08:45:34;;;;;;;15.52;7.50;;;;;;;5.80;100.00;100674.06;10168159;28;20061;-73
2022/02/15 08:50:32;;;;;;;13.95;7.65;;;;;;;5.80;100.00;100695.75;10191928;28;20554;-73
2022/02/15 08:55:28;;;;;;;18.15;8.35;;;;;;;5.79;100.00;100680.59;10179628;28;20050;-72
2022/02/15 09:00:25;;;;;;;17.20;9.65;;;;;;;5.92;100.00;100693.47;10179107;28;20072;-73
2022/02/15 09:05:23;;;;;;;21.70;10.48;;;;;;;6.01;100.00;100702.66;10175383;28;20047;-72
2022/02/15 09:10:20;;;;;;;17.02;11.23;;;;;;;6.10;100.00;100690.06;10189194;28;20104;-72
2022/02/15 09:15:16;;;;;;;14.50;9.32;;;;;;;6.07;100.00;100696.06;10169304;28;20093;-72
2022/02/15 09:20:13;;;;;;;15.05;9.65;;;;;;;6.07;100.00;100704.19;10183344;28;20450;-72
2022/02/15 09:25:10;;;;;;;14.60;9.45;;;;;;;6.16;100.00;100698.16;10210699;28;20610;-72
2022/02/15 09:30:07;;;;;;;14.52;8.90;;;;;;;6.29;100.00;100697.47;10212361;28;20052;-71
2022/02/15 09:35:04;;;;;;;15.50;7.78;;;;;;;6.38;100.00;100701.13;10207205;28;20054;-72
2022/02/15 09:40:00;;;;;;;11.10;6.72;;;;;;;6.59;100.00;100695.44;10184690;28;20050;-72
2022/02/15 09:44:57;;;;;;;16.10;6.57;;;;;;;6.65;100.00;100699.72;10188504;28;20062;-72
2022/02/15 09:49:53;;;;;;;13.13;6.78;;;;;;;6.80;100.00;100699.53;10156949;28;20105;-72
2022/02/15 09:54:52;;;;;;;12.93;5.20;;;;;;;6.77;100.00;100702.81;10170778;28;20046;-72
2022/02/15 09:59:50;;;;;;;8.77;4.80;;;;;;;6.78;100.00;100709.06;10199000;28;20483;-72
2022/02/15 10:04:51;;;;;;;12.02;4.35;;;;;;;6.77;100.00;100719.13;10185604;28;20456;-72
2022/02/15 10:09:50;;;;;;;12.50;4.97;;;;;;;6.94;100.00;100719.44;10156625;28;20472;-72
2022/02/15 10:14:51;;;;;;;14.82;4.30;;;;;;;6.92;100.00;100718.94;10184354;28;20500;-72
2022/02/15 10:19:49;;;;;;;10.20;4.70;;;;;;;6.97;100.00;100723.47;10197228;28;20038;-73
2022/02/15 10:24:58;;;;;;;9.13;4.60;;;;;;;7.16;100.00;100726.19;10185384;28;20053;-73
2022/02/15 10:29:56;;;;;;;8.23;4.07;;;;;;;7.32;100.00;100722.13;10199567;28;20038;-73
2022/02/15 10:34:56;;;;;;;6.47;3.55;;;;;;;7.44;100.00;100720.88;10192181;28;20420;-73
2022/02/15 10:39:56;;;;;;;8.85;4.60;;;;;;;7.71;100.00;100723.69;10189980;28;20554;-73
2022/02/15 10:45:00;;;;;;;14.15;4.95;;;;;;;7.70;100.00;100738.38;10179804;28;20057;-72
2022/02/15 10:49:59;;;;;;;8.63;4.78;;;;;;;7.88;100.00;100731.28;10183343;28;20407;-72
2022/02/15 10:54:56;;;;;;;10.30;4.38;;;;;;;7.94;100.00;100740.19;10179042;28;20097;-72
2022/02/15 10:59:54;;;;;;;8.65;4.50;;;;;;;7.73;100.00;100731.56;10207401;28;20041;-72
2022/02/15 11:04:51;;;;;;;9.68;5.55;;;;;;;7.70;100.00;100740.31;10204417;28;20538;-72
2022/02/15 11:10:25;;;;;;;14.50;5.80;;;;;;;7.64;100.00;100739.59;10159286;28;20050;-72
2022/02/15 11:15:30;;;;;;;11.82;6.88;;;;;;;7.63;100.00;100746.13;10164441;28;20116;-72
2022/02/15 11:20:50;;;;;;;13.98;7.28;;;;;;;7.58;100.00;100754.38;10206710;28;20491;-72
2022/02/15 11:25:49;;;;;;;10.18;6.95;;;;;;;7.38;100.00;100740.00;10191523;28;20073;-72
2022/02/15 11:30:53;;;;;;;13.10;7.78;;;;;;;7.48;100.00;100743.69;10224306;28;20038;-72
2022/02/15 11:35:51;;;;;;;9.75;7.53;;;;;;;7.82;100.00;100742.56;10201088;28;20074;-72
2022/02/15 11:41:08;;;;;;;12.85;8.15;;;;;;;8.21;100.00;100745.69;10193429;28;20080;-72
2022/02/15 11:46:05;;;;;;;14.43;9.55;;;;;;;7.98;100.00;100730.28;10183842;28;20053;-71
2022/02/15 11:51:02;;;;;;;12.68;8.50;;;;;;;7.73;100.00;100745.97;10192997;28;20096;-73
2022/02/15 11:55:59;;;;;;;14.85;10.30;;;;;;;8.13;100.00;100748.28;10175469;28;20041;-72
2022/02/15 12:00:55;;;;;;;21.85;11.50;;;;;;;8.36;100.00;100741.06;10212534;28;20504;-73
2022/02/15 12:05:52;;;;;;;19.17;11.45;;;;;;;8.13;100.00;100743.66;10170711;28;20042;-72
2022/02/15 12:10:50;;;;;;;15.35;11.30;;;;;;;8.21;100.00;100734.78;10191562;28;20062;-73
2022/02/15 12:15:54;;;;;;;14.77;10.05;;;;;;;7.91;100.00;100738.06;10167409;28;20073;-73
2022/02/15 12:20:56;;;;;;;15.30;9.90;;;;;;;7.96;100.00;100713.44;10194435;28;20503;-74
2022/02/15 12:25:53;;;;;;;15.25;10.52;;;;;;;7.97;100.00;100717.81;10180240;28;20069;-74
2022/02/15 12:30:50;;;;;;;17.60;11.07;;;;;;;8.11;100.00;100702.28;10187694;28;20085;-73
2022/02/15 12:35:54;;;;;;;13.05;8.88;;;;;;;8.10;100.00;100700.69;10181172;28;20407;-73
2022/02/15 12:40:51;;;;;;;14.75;9.23;;;;;;;7.99;100.00;100682.91;10190923;28;20468;-73
2022/02/15 12:45:47;;;;;;;11.35;7.68;;;;;;;8.26;100.00;100686.75;10196759;28;20042;-73
2022/02/15 12:50:45;;;;;;;12.82;7.18;;;;;;;8.18;100.00;100691.78;10199552;28;20127;-73
2022/02/15 12:55:48;;;;;;;14.88;8.00;;;;;;;8.10;100.00;100694.41;10188817;28;20042;-73
2022/02/15 13:00:44;;;;;;;15.68;7.97;;;;;;;8.09;100.00;100709.94;10219853;28;20540;-74
2022/02/15 13:05:41;;;;;;;14.52;8.60;;;;;;;7.93;100.00;100697.72;10194301;28;20049;-72
2022/02/15 13:10:39;;;;;;;12.50;8.05;;;;;;;8.02;100.00;100695.91;10164976;28;20152;-73
2022/02/15 13:15:38;;;;;;;14.63;10.07;;;;;;;7.93;100.00;100689.56;10189837;28;20046;-73
2022/02/15 13:20:38;;;;;;;15.30;9.95;;;;;;;8.21;100.00;100688.47;10203248;28;20038;-73
2022/02/15 13:25:55;;;;;;;16.73;10.45;;;;;;;8.06;100.00;100677.88;10172585;28;20535;-73
2022/02/15 13:31:00;;;;;;;16.38;11.63;;;;;;;7.90;100.00;100680.06;10202919;28;20046;-73
2022/02/15 13:35:59;;;;;;;16.77;10.75;;;;;;;7.90;100.00;100669.19;10185426;28;20105;-73
2022/02/15 13:40:55;;;;;;;16.52;9.98;;;;;;;8.22;100.00;100665.56;10186974;28;20065;-73
2022/02/15 13:45:52;;;;;;;16.67;10.38;;;;;;;8.32;100.00;100659.09;10188572;28;20038;-73
2022/02/15 13:50:49;;;;;;;13.05;8.95;;;;;;;8.10;100.00;100639.94;10197200;28;20117;-73
2022/02/15 13:55:47;;;;;;;13.68;9.15;;;;;;;8.13;100.00;100644.81;10187900;28;20109;-73
2022/02/15 14:00:44;;;;;;;13.02;8.68;;;;;;;8.06;100.00;100642.47;10225956;28;20418;-73
2022/02/15 14:05:40;;;;;;;11.60;8.55;;;;;;;7.94;100.00;100647.63;10208554;28;20068;-73
2022/02/15 14:10:37;;;;;;;13.75;9.35;;;;;;;7.99;100.00;100655.69;10157308;28;20484;-73
2022/02/15 14:15:34;;;;;;;12.80;8.43;;;;;;;8.14;100.00;100644.47;10172389;28;20053;-73
2022/02/15 14:20:31;;;;;;;13.23;9.05;;;;;;;8.27;100.00;100628.44;10180770;28;20064;-74
2022/02/15 14:25:28;;;;;;;15.48;9.02;;;;;;;8.24;100.00;100640.75;10187387;28;20046;-73
2022/02/15 14:30:25;;;;;;;13.43;9.05;;;;;;;8.51;100.00;100623.59;10189521;28;20121;-73
2022/02/15 14:35:22;;;;;;;12.80;8.95;;;;;;;8.41;100.00;100634.72;10166443;28;20474;-73
2022/02/15 14:40:20;;;;;;;14.98;9.43;;;;;;;8.28;100.00;100632.78;10184731;28;20538;-73
2022/02/15 14:45:17;;;;;;;15.52;9.23;;;;;;;8.22;100.00;100622.00;10176686;28;20465;-73
2022/02/15 14:50:14;;;;;;;16.45;10.20;;;;;;;8.13;100.00;100623.81;10156019;28;20042;-73
2022/02/15 14:55:16;;;;;;;13.68;9.23;;;;;;;8.26;100.00;100616.72;10167548;28;20057;-73
2022/02/15 15:00:13;;;;;;;14.38;9.32;;;;;;;8.20;100.00;100607.88;10221486;28;20131;-73
2022/02/15 15:05:10;;;;;;;15.75;10.02;;;;;;;8.05;100.00;100612.81;10211578;28;20129;-73
2022/02/15 15:10:08;;;;;;;14.20;9.00;;;;;;;8.02;100.00;100597.91;10156710;28;20515;-72
2022/02/15 15:15:05;;;;;;;14.63;9.07;;;;;;;7.96;100.00;100597.22;10163481;28;20054;-73
2022/02/15 15:20:02;;;;;;;15.77;9.63;;;;;;;7.87;100.00;100592.78;10200246;28;20041;-72
2022/02/15 15:24:59;;;;;;;16.02;10.50;;;;;;;7.95;100.00;100583.88;10192671;28;20108;-72
2022/02/15 15:29:55;;;;;;;15.15;8.95;;;;;;;7.90;100.00;100570.38;10204405;28;20042;-73
2022/02/15 15:34:52;;;;;;;18.42;10.57;;;;;;;7.86;100.00;100569.38;10195126;28;20070;-72
2022/02/15 15:39:48;;;;;;;15.55;10.10;;;;;;;7.96;100.00;100547.38;10188134;28;20042;-73
2022/02/15 15:44:49;;;;;;;16.27;9.82;;;;;;;7.83;100.00;100548.22;10186092;28;20487;-73
2022/02/15 15:49:46;;;;;;;14.55;9.93;;;;;;;7.89;100.00;100547.81;10186475;28;20046;-73
2022/02/15 15:54:42;;;;;;;15.52;10.45;;;;;;;7.85;100.00;100540.56;10191116;28;20502;-73
2022/02/15 15:59:41;;;;;;;17.33;10.27;;;;;;;7.83;100.00;100540.03;10185545;28;20100;-73
2022/02/15 16:04:58;;;;;;;20.13;9.32;;;;;;;7.63;100.00;100533.88;10185211;28;20054;-73
2022/02/15 16:09:54;;;;;;;18.42;10.18;;;;;;;7.57;100.00;100548.72;10187486;28;20476;-73
2022/02/15 16:14:51;;;;;;;14.32;9.65;;;;;;;7.50;100.00;100540.16;10167616;28;20046;-73
2022/02/15 16:19:47;;;;;;;15.27;8.77;;;;;;;7.41;100.00;100536.50;10182301;28;20046;-73
2022/02/15 16:24:44;;;;;;;13.80;9.18;;;;;;;7.31;100.00;100527.44;10224740;28;20050;-73
2022/02/15 16:29:41;;;;;;;13.88;9.18;;;;;;;7.22;100.00;100515.63;10190804;28;20139;-73
2022/02/15 16:34:41;;;;;;;18.52;8.52;;;;;;;7.21;100.00;100511.28;10209647;28;20084;-73
2022/02/15 16:39:38;;;;;;;11.57;8.27;;;;;;;7.18;100.00;100503.75;10192045;28;20042;-72
2022/02/15 16:44:38;;;;;;;13.02;8.13;;;;;;;7.07;100.00;100515.91;10195277;28;20057;-73
2022/02/15 16:49:36;;;;;;;11.05;6.43;;;;;;;7.04;100.00;100502.91;10190694;28;20045;-72
2022/02/15 16:54:33;;;;;;;12.63;7.18;;;;;;;7.01;100.00;100500.78;10198543;28;20045;-72
2022/02/15 16:59:30;;;;;;;11.35;7.35;;;;;;;7.02;100.00;100502.41;10215797;28;20095;-73
2022/02/15 17:04:26;;;;;;;12.38;6.90;;;;;;;6.95;100.00;100481.03;10220142;28;20104;-73
2022/02/15 17:09:23;;;;;;;13.27;6.22;;;;;;;6.92;100.00;100482.44;10165196;28;20078;-73
2022/02/15 17:14:19;;;;;;;9.43;5.75;;;;;;;6.92;100.00;100481.66;10164445;28;20042;-72
2022/02/15 17:19:15;;;;;;;8.88;5.00;;;;;;;6.92;100.00;100479.72;10176754;28;20571;-72
2022/02/15 17:24:12;;;;;;;14.15;6.75;;;;;;;6.93;100.00;100467.75;10181441;28;20050;-72
2022/02/15 17:29:09;;;;;;;12.20;6.30;;;;;;;6.91;100.00;100469.94;10207644;28;20570;-73
2022/02/15 17:34:06;;;;;;;13.65;6.20;;;;;;;6.95;100.00;100470.16;10208479;28;20076;-72
2022/02/15 17:39:02;;;;;;;8.82;5.75;;;;;;;6.89;100.00;100455.88;10188347;28;20046;-72
2022/02/15 17:43:59;;;;;;;10.52;6.28;;;;;;;6.93;100.00;100446.00;10196667;28;20088;-72
2022/02/15 17:48:56;;;;;;;12.48;6.88;;;;;;;6.97;100.00;100439.97;10187576;28;20551;-72
2022/02/15 17:53:54;;;;;;;12.10;7.50;;;;;;;6.98;100.00;100449.72;10192909;28;20070;-73
2022/02/15 17:58:51;;;;;;;12.30;8.32;;;;;;;6.92;100.00;100433.53;10195626;28;20077;-72
2022/02/15 18:03:47;;;;;;;13.00;7.45;;;;;;;6.89;100.00;100425.97;10201155;28;20112;-73
2022/02/15 18:08:48;;;;;;;13.50;7.85;;;;;;;6.85;100.00;100427.69;10186046;28;20103;-74
2022/02/15 18:13:45;;;;;;;13.93;7.93;;;;;;;6.77;100.00;100417.50;10196194;28;20042;-73
2022/02/15 18:18:42;;;;;;;13.52;6.95;;;;;;;6.87;100.00;100403.72;10164953;28;20121;-72
2022/02/15 18:23:39;;;;;;;11.15;6.88;;;;;;;6.73;100.00;100402.91;10225829;28;20485;-73
2022/02/15 18:28:39;;;;;;;13.15;7.50;;;;;;;6.71;100.00;100395.06;10182434;28;20050;-73
2022/02/15 18:33:36;;;;;;;13.20;7.10;;;;;;;6.72;100.00;100384.97;10191801;28;20096;-73
2022/02/15 18:38:33;;;;;;;12.65;7.18;;;;;;;6.79;100.00;100379.97;10185641;28;20148;-73
2022/02/15 18:43:33;;;;;;;12.35;7.57;;;;;;;6.75;100.00;100384.38;10194476;28;20068;-73
2022/02/15 18:48:30;;;;;;;11.95;7.32;;;;;;;6.80;100.00;100356.31;10184874;28;20132;-73
2022/02/15 18:53:41;;;;;;;10.70;6.95;;;;;;;6.78;100.00;100355.78;10189953;28;20050;-73
2022/02/15 18:58:37;;;;;;;10.60;6.47;;;;;;;6.83;100.00;100358.44;10200851;28;20104;-73
2022/02/15 19:03:35;;;;;;;10.23;7.80;;;;;;;6.70;100.00;100357.31;10230316;28;20042;-73
2022/02/15 19:08:31;;;;;;;11.25;7.07;;;;;;;6.70;100.00;100338.28;10167787;28;20057;-73
2022/02/15 19:13:28;;;;;;;11.63;7.78;;;;;;;6.49;100.00;100341.38;10162280;28;20041;-74
2022/02/15 19:18:24;;;;;;;8.38;6.07;;;;;;;6.20;100.00;100338.13;10192854;28;20473;-74
2022/02/15 19:23:21;;;;;;;10.23;6.75;;;;;;;6.08;100.00;100342.09;10204672;28;20874;-74
2022/02/15 19:28:21;;;;;;;8.93;5.45;;;;;;;5.90;100.00;100354.56;10185980;28;20122;-74
2022/02/15 19:33:18;;;;;;;9.82;6.38;;;;;;;5.79;100.00;100334.09;10204764;28;20045;-74
2022/02/15 19:38:16;;;;;;;11.00;6.47;;;;;;;5.64;100.00;100313.47;10161599;28;20050;-74
2022/02/15 19:43:17;;;;;;;12.27;5.95;;;;;;;5.46;100.00;100311.56;10153170;28;20044;-74
2022/02/15 19:48:14;;;;;;;11.07;6.75;;;;;;;5.40;100.00;100291.03;10176517;28;20056;-74
2022/02/15 19:53:10;;;;;;;7.93;5.25;;;;;;;5.40;100.00;100296.44;10192964;28;20253;-73
2022/02/15 19:58:07;;;;;;;13.90;5.40;;;;;;;5.17;100.00;100293.50;10189860;28;20132;-73
2022/02/15 20:03:03;;;;;;;11.00;5.57;;;;;;;5.14;100.00;100267.00;10172857;28;20264;-73
2022/02/15 20:08:00;;;;;;;9.73;5.53;;;;;;;5.15;100.00;100262.38;10183410;28;20077;-74
2022/02/15 20:12:57;;;;;;;7.88;5.25;;;;;;;5.08;100.00;100257.31;10180744;28;20041;-73
2022/02/15 20:17:54;;;;;;;14.57;6.00;;;;;;;5.01;100.00;100246.03;10184460;28;20061;-73
2022/02/15 20:22:50;;;;;;;12.27;5.80;;;;;;;4.95;100.00;100252.63;10187899;28;20081;-72
2022/02/15 20:27:47;;;;;;;8.20;5.18;;;;;;;4.91;100.00;100246.19;10160764;28;20492;-73
2022/02/15 20:32:45;;;;;;;9.63;4.88;;;;;;;4.94;100.00;100240.19;10190903;28;20061;-72
2022/02/15 20:37:44;;;;;;;11.30;5.47;;;;;;;4.87;100.00;100223.47;10185082;28;20104;-70
2022/02/15 20:42:41;;;;;;;10.38;4.93;;;;;;;4.81;100.00;100226.25;10184760;28;20103;-70
2022/02/15 20:47:37;;;;;;;12.38;4.80;;;;;;;4.81;100.00;100215.44;10184570;28;20594;-73
2022/02/15 20:52:36;;;;;;;11.73;5.47;;;;;;;4.78;100.00;100205.19;10166774;28;20168;-70
2022/02/15 20:57:33;;;;;;;11.18;4.20;;;;;;;4.71;100.00;100210.16;10186546;28;20507;-71
2022/02/15 21:02:34;;;;;;;8.82;4.20;;;;;;;4.83;100.00;100213.22;10169145;28;20042;-70
2022/02/15 21:07:33;;;;;;;14.02;4.25;;;;;;;4.80;100.00;100203.00;10160469;28;20051;-70
2022/02/15 21:12:29;;;;;;;6.05;3.42;;;;;;;4.81;100.00;100199.19;10182995;28;20065;-72
2022/02/15 21:17:26;;;;;;;8.68;3.78;;;;;;;4.79;100.00;100201.38;10189663;28;20454;-72
2022/02/15 21:22:25;;;;;;;9.15;3.42;;;;;;;4.82;100.00;100184.53;10199682;28;20050;-72
2022/02/15 21:27:21;;;;;;;8.90;3.28;;;;;;;4.80;100.00;100175.91;10192805;28;20688;-72
2022/02/15 21:32:18;;;;;;;11.77;3.75;;;;;;;4.87;100.00;100166.59;10202472;28;20069;-73
2022/02/15 21:37:14;;;;;;;8.60;3.28;;;;;;;4.79;100.00;100163.44;10195533;28;20097;-71
2022/02/15 21:42:11;;;;;;;10.07;3.70;;;;;;;4.82;100.00;100154.72;10196531;28;20046;-71
2022/02/15 21:47:09;;;;;;;6.50;3.22;;;;;;;4.81;100.00;100150.41;10187774;28;20080;-72
2022/02/15 21:52:06;;;;;;;10.18;3.70;;;;;;;4.76;100.00;100147.78;10195188;28;20045;-72
2022/02/15 21:57:03;;;;;;;8.77;3.55;;;;;;;4.79;100.00;100140.97;10197091;28;20214;-72
2022/02/15 22:02:02;;;;;;;9.30;4.45;;;;;;;4.87;100.00;100142.22;10196727;28;20081;-72
2022/02/15 22:06:58;;;;;;;7.30;3.63;;;;;;;4.80;100.00;100143.41;10192968;28;20046;-72
2022/02/15 22:11:55;;;;;;;7.47;3.72;;;;;;;4.85;100.00;100113.53;10196764;28;20046;-72
2022/02/15 22:16:51;;;;;;;10.77;4.97;;;;;;;4.89;100.00;100113.72;10190417;28;20097;-73
2022/02/15 22:21:48;;;;;;;9.95;4.82;;;;;;;4.97;100.00;100087.88;10200569;28;20469;-71
2022/02/15 22:26:50;;;;;;;9.10;5.43;;;;;;;5.03;100.00;100086.69;10190335;28;20142;-69
2022/02/15 22:31:46;;;;;;;8.70;6.20;;;;;;;5.09;100.00;100080.09;10195415;28;20140;-69
2022/02/15 22:36:43;;;;;;;10.90;5.82;;;;;;;5.20;100.00;100069.91;10191940;28;20416;-69